sensor_id;sensor_type;location;lat;lon;timestamp;P1;durP1;ratioP1;P2;durP2;ratioP2
20557;SDS011;10437;48.156;11.530;2022-10-17T00:00:41;6.43;;;2.15;;
20557;SDS011;10437;48.156;11.530;2022-10-17T00:03:09;3.42;;;2.10;;
20557;SDS011;10437;48.156;11.530;2022-10-17T00:05:38;4.57;;;1.85;;
20557;SDS011;10437;48.156;11.530;2022-10-17T00:08:06;4.88;;;2.30;;
20557;SDS011;10437;48.156;11.530;2022-10-17T00:10:34;4.07;;;2.20;;
20557;SDS011;10437;48.156;11.530;2022-10-17T00:13:01;4.43;;;2.20;;
20557;SDS011;10437;48.156;11.530;2022-10-17T00:15:29;6.65;;;2.65;;
20557;SDS011;10437;48.156;11.530;2022-10-17T00:17:56;4.85;;;1.90;;
20557;SDS011;10437;48.156;11.530;2022-10-17T00:20:23;4.82;;;2.20;;
20557;SDS011;10437;48.156;11.530;2022-10-17T00:22:51;4.18;;;1.92;;
20557;SDS011;10437;48.156;11.530;2022-10-17T00:25:18;4.70;;;2.13;;
20557;SDS011;10437;48.156;11.530;2022-10-17T00:27:46;3.08;;;1.88;;
20557;SDS011;10437;48.156;11.530;2022-10-17T00:30:13;3.78;;;1.95;;
20557;SDS011;10437;48.156;11.530;2022-10-17T00:32:41;3.78;;;2.00;;
20557;SDS011;10437;48.156;11.530;2022-10-17T00:35:08;4.97;;;1.88;;
20557;SDS011;10437;48.156;11.530;2022-10-17T00:37:35;6.85;;;1.90;;
20557;SDS011;10437;48.156;11.530;2022-10-17T00:40:03;8.13;;;2.35;;
20557;SDS011;10437;48.156;11.530;2022-10-17T00:42:31;4.55;;;2.22;;
20557;SDS011;10437;48.156;11.530;2022-10-17T00:45:04;5.50;;;2.13;;
20557;SDS011;10437;48.156;11.530;2022-10-17T00:47:37;3.13;;;1.90;;
20557;SDS011;10437;48.156;11.530;2022-10-17T00:50:05;3.83;;;2.17;;
20557;SDS011;10437;48.156;11.530;2022-10-17T00:52:32;4.60;;;1.90;;
20557;SDS011;10437;48.156;11.530;2022-10-17T00:55:00;3.75;;;2.03;;
20557;SDS011;10437;48.156;11.530;2022-10-17T00:57:33;4.28;;;1.73;;
20557;SDS011;10437;48.156;11.530;2022-10-17T01:00:01;5.20;;;2.00;;
20557;SDS011;10437;48.156;11.530;2022-10-17T01:02:30;5.22;;;1.77;;
20557;SDS011;10437;48.156;11.530;2022-10-17T01:04:57;3.67;;;1.88;;
20557;SDS011;10437;48.156;11.530;2022-10-17T01:07:25;6.22;;;1.90;;
20557;SDS011;10437;48.156;11.530;2022-10-17T01:09:53;5.07;;;1.95;;
20557;SDS011;10437;48.156;11.530;2022-10-17T01:12:21;3.20;;;1.73;;
20557;SDS011;10437;48.156;11.530;2022-10-17T01:14:57;2.88;;;2.03;;
20557;SDS011;10437;48.156;11.530;2022-10-17T01:17:34;7.28;;;2.05;;
20557;SDS011;10437;48.156;11.530;2022-10-17T01:23:29;5.43;;;2.00;;
20557;SDS011;10437;48.156;11.530;2022-10-17T01:26:13;3.30;;;1.80;;
20557;SDS011;10437;48.156;11.530;2022-10-17T01:29:00;2.70;;;1.70;;
20557;SDS011;10437;48.156;11.530;2022-10-17T01:31:50;5.32;;;1.88;;
20557;SDS011;10437;48.156;11.530;2022-10-17T01:34:21;4.05;;;1.90;;
20557;SDS011;10437;48.156;11.530;2022-10-17T01:36:55;6.53;;;2.30;;
20557;SDS011;10437;48.156;11.530;2022-10-17T01:39:28;6.15;;;1.95;;
20557;SDS011;10437;48.156;11.530;2022-10-17T01:42:05;8.23;;;2.00;;
20557;SDS011;10437;48.156;11.530;2022-10-17T01:44:41;4.55;;;2.10;;
20557;SDS011;10437;48.156;11.530;2022-10-17T01:47:16;3.78;;;2.10;;
20557;SDS011;10437;48.156;11.530;2022-10-17T01:49:45;5.78;;;1.92;;
20557;SDS011;10437;48.156;11.530;2022-10-17T01:52:16;5.05;;;2.10;;
20557;SDS011;10437;48.156;11.530;2022-10-17T01:54:46;4.93;;;2.30;;
20557;SDS011;10437;48.156;11.530;2022-10-17T01:57:19;3.08;;;1.70;;
20557;SDS011;10437;48.156;11.530;2022-10-17T01:59:50;3.17;;;2.05;;
20557;SDS011;10437;48.156;11.530;2022-10-17T02:02:21;3.55;;;2.35;;
20557;SDS011;10437;48.156;11.530;2022-10-17T02:04:49;4.20;;;1.90;;
20557;SDS011;10437;48.156;11.530;2022-10-17T02:07:17;4.00;;;1.83;;
20557;SDS011;10437;48.156;11.530;2022-10-17T02:09:44;4.28;;;1.92;;
20557;SDS011;10437;48.156;11.530;2022-10-17T02:12:16;6.28;;;2.10;;
20557;SDS011;10437;48.156;11.530;2022-10-17T02:14:58;4.97;;;1.90;;
20557;SDS011;10437;48.156;11.530;2022-10-17T02:17:41;4.70;;;1.80;;
20557;SDS011;10437;48.156;11.530;2022-10-17T02:20:15;4.72;;;2.20;;
20557;SDS011;10437;48.156;11.530;2022-10-17T02:22:46;6.35;;;2.00;;
20557;SDS011;10437;48.156;11.530;2022-10-17T02:25:20;2.53;;;1.65;;
20557;SDS011;10437;48.156;11.530;2022-10-17T02:27:59;3.45;;;2.13;;
20557;SDS011;10437;48.156;11.530;2022-10-17T02:30:33;5.15;;;2.20;;
20557;SDS011;10437;48.156;11.530;2022-10-17T02:33:08;6.30;;;1.90;;
20557;SDS011;10437;48.156;11.530;2022-10-17T02:35:40;4.95;;;1.70;;
20557;SDS011;10437;48.156;11.530;2022-10-17T02:38:10;3.92;;;1.92;;
20557;SDS011;10437;48.156;11.530;2022-10-17T02:40:38;4.20;;;1.98;;
20557;SDS011;10437;48.156;11.530;2022-10-17T02:43:07;10.25;;;2.20;;
20557;SDS011;10437;48.156;11.530;2022-10-17T02:45:34;4.25;;;2.00;;
20557;SDS011;10437;48.156;11.530;2022-10-17T02:48:03;6.30;;;2.72;;
20557;SDS011;10437;48.156;11.530;2022-10-17T02:50:37;4.85;;;2.03;;
20557;SDS011;10437;48.156;11.530;2022-10-17T02:53:13;6.22;;;2.00;;
20557;SDS011;10437;48.156;11.530;2022-10-17T02:55:43;4.43;;;1.80;;
20557;SDS011;10437;48.156;11.530;2022-10-17T02:58:17;6.88;;;2.03;;
20557;SDS011;10437;48.156;11.530;2022-10-17T03:00:46;2.60;;;1.55;;
20557;SDS011;10437;48.156;11.530;2022-10-17T03:03:17;3.38;;;1.67;;
20557;SDS011;10437;48.156;11.530;2022-10-17T03:05:46;5.13;;;1.92;;
20557;SDS011;10437;48.156;11.530;2022-10-17T03:08:13;8.75;;;2.20;;
20557;SDS011;10437;48.156;11.530;2022-10-17T03:10:40;4.80;;;1.95;;
20557;SDS011;10437;48.156;11.530;2022-10-17T03:13:07;5.10;;;1.67;;
20557;SDS011;10437;48.156;11.530;2022-10-17T03:15:35;3.70;;;1.77;;
20557;SDS011;10437;48.156;11.530;2022-10-17T03:18:02;3.25;;;1.90;;
20557;SDS011;10437;48.156;11.530;2022-10-17T03:20:29;3.13;;;1.70;;
20557;SDS011;10437;48.156;11.530;2022-10-17T03:22:57;2.70;;;1.65;;
20557;SDS011;10437;48.156;11.530;2022-10-17T03:25:24;8.35;;;2.33;;
20557;SDS011;10437;48.156;11.530;2022-10-17T03:27:51;2.90;;;1.70;;
20557;SDS011;10437;48.156;11.530;2022-10-17T03:30:18;4.43;;;1.88;;
20557;SDS011;10437;48.156;11.530;2022-10-17T03:32:46;4.25;;;1.77;;
20557;SDS011;10437;48.156;11.530;2022-10-17T03:35:13;4.60;;;1.58;;
20557;SDS011;10437;48.156;11.530;2022-10-17T03:37:40;6.10;;;2.00;;
20557;SDS011;10437;48.156;11.530;2022-10-17T03:40:09;3.55;;;1.60;;
20557;SDS011;10437;48.156;11.530;2022-10-17T03:42:36;3.67;;;2.00;;
20557;SDS011;10437;48.156;11.530;2022-10-17T03:45:03;4.15;;;2.05;;
20557;SDS011;10437;48.156;11.530;2022-10-17T03:47:30;8.48;;;2.10;;
20557;SDS011;10437;48.156;11.530;2022-10-17T03:49:58;9.90;;;2.10;;
20557;SDS011;10437;48.156;11.530;2022-10-17T03:52:25;3.75;;;1.73;;
20557;SDS011;10437;48.156;11.530;2022-10-17T03:54:51;4.90;;;1.92;;
20557;SDS011;10437;48.156;11.530;2022-10-17T03:57:20;5.35;;;1.65;;
20557;SDS011;10437;48.156;11.530;2022-10-17T03:59:48;5.03;;;1.75;;
20557;SDS011;10437;48.156;11.530;2022-10-17T04:02:15;3.83;;;1.63;;
20557;SDS011;10437;48.156;11.530;2022-10-17T04:04:42;6.20;;;1.80;;
20557;SDS011;10437;48.156;11.530;2022-10-17T04:07:09;6.78;;;2.88;;
20557;SDS011;10437;48.156;11.530;2022-10-17T04:09:36;2.50;;;1.73;;
20557;SDS011;10437;48.156;11.530;2022-10-17T04:12:04;4.95;;;2.28;;
20557;SDS011;10437;48.156;11.530;2022-10-17T04:14:32;3.15;;;2.10;;
20557;SDS011;10437;48.156;11.530;2022-10-17T04:16:59;7.60;;;2.00;;
20557;SDS011;10437;48.156;11.530;2022-10-17T04:19:26;4.90;;;1.92;;
20557;SDS011;10437;48.156;11.530;2022-10-17T04:21:53;6.07;;;2.03;;
20557;SDS011;10437;48.156;11.530;2022-10-17T04:24:20;3.78;;;2.00;;
20557;SDS011;10437;48.156;11.530;2022-10-17T04:26:48;3.40;;;2.03;;
20557;SDS011;10437;48.156;11.530;2022-10-17T04:29:15;9.15;;;2.28;;
20557;SDS011;10437;48.156;11.530;2022-10-17T04:31:44;3.95;;;1.92;;
20557;SDS011;10437;48.156;11.530;2022-10-17T04:34:11;5.70;;;1.75;;
20557;SDS011;10437;48.156;11.530;2022-10-17T04:36:39;3.47;;;1.88;;
20557;SDS011;10437;48.156;11.530;2022-10-17T04:39:06;6.57;;;2.22;;
20557;SDS011;10437;48.156;11.530;2022-10-17T04:41:33;4.90;;;1.88;;
20557;SDS011;10437;48.156;11.530;2022-10-17T04:44:00;6.30;;;2.10;;
20557;SDS011;10437;48.156;11.530;2022-10-17T04:46:27;6.25;;;2.30;;
20557;SDS011;10437;48.156;11.530;2022-10-17T04:48:56;5.18;;;2.00;;
20557;SDS011;10437;48.156;11.530;2022-10-17T04:51:22;4.82;;;2.08;;
20557;SDS011;10437;48.156;11.530;2022-10-17T04:53:49;8.25;;;2.83;;
20557;SDS011;10437;48.156;11.530;2022-10-17T04:56:17;5.07;;;2.05;;
20557;SDS011;10437;48.156;11.530;2022-10-17T04:58:46;4.38;;;1.92;;
20557;SDS011;10437;48.156;11.530;2022-10-17T05:01:14;4.55;;;2.40;;
20557;SDS011;10437;48.156;11.530;2022-10-17T05:03:42;4.05;;;2.15;;
20557;SDS011;10437;48.156;11.530;2022-10-17T05:06:11;11.60;;;2.20;;
20557;SDS011;10437;48.156;11.530;2022-10-17T05:08:39;6.35;;;2.30;;
20557;SDS011;10437;48.156;11.530;2022-10-17T05:11:13;6.97;;;2.60;;
20557;SDS011;10437;48.156;11.530;2022-10-17T05:13:44;9.10;;;2.92;;
20557;SDS011;10437;48.156;11.530;2022-10-17T05:16:15;6.55;;;2.33;;
20557;SDS011;10437;48.156;11.530;2022-10-17T05:18:42;7.25;;;2.20;;
20557;SDS011;10437;48.156;11.530;2022-10-17T05:21:11;4.22;;;2.55;;
20557;SDS011;10437;48.156;11.530;2022-10-17T05:23:37;4.22;;;2.20;;
20557;SDS011;10437;48.156;11.530;2022-10-17T05:26:04;6.30;;;2.30;;
20557;SDS011;10437;48.156;11.530;2022-10-17T05:28:32;4.75;;;2.38;;
20557;SDS011;10437;48.156;11.530;2022-10-17T05:31:01;6.75;;;2.40;;
20557;SDS011;10437;48.156;11.530;2022-10-17T05:33:28;7.20;;;2.35;;
20557;SDS011;10437;48.156;11.530;2022-10-17T05:35:55;6.28;;;2.03;;
20557;SDS011;10437;48.156;11.530;2022-10-17T05:38:24;3.88;;;2.22;;
20557;SDS011;10437;48.156;11.530;2022-10-17T05:40:55;4.70;;;2.00;;
20557;SDS011;10437;48.156;11.530;2022-10-17T05:43:23;3.42;;;2.13;;
20557;SDS011;10437;48.156;11.530;2022-10-17T05:45:50;4.78;;;2.47;;
20557;SDS011;10437;48.156;11.530;2022-10-17T05:48:17;8.13;;;2.65;;
20557;SDS011;10437;48.156;11.530;2022-10-17T05:50:44;8.48;;;2.67;;
20557;SDS011;10437;48.156;11.530;2022-10-17T05:53:11;6.53;;;2.50;;
20557;SDS011;10437;48.156;11.530;2022-10-17T05:55:40;4.72;;;2.47;;
20557;SDS011;10437;48.156;11.530;2022-10-17T05:58:06;7.32;;;3.03;;
20557;SDS011;10437;48.156;11.530;2022-10-17T06:00:34;5.63;;;2.60;;
20557;SDS011;10437;48.156;11.530;2022-10-17T06:03:01;5.32;;;2.47;;
20557;SDS011;10437;48.156;11.530;2022-10-17T06:05:27;23.70;;;3.35;;
20557;SDS011;10437;48.156;11.530;2022-10-17T06:07:55;4.53;;;2.58;;
20557;SDS011;10437;48.156;11.530;2022-10-17T06:10:22;8.93;;;2.78;;
20557;SDS011;10437;48.156;11.530;2022-10-17T06:12:50;41.85;;;5.10;;
20557;SDS011;10437;48.156;11.530;2022-10-17T06:15:17;16.35;;;4.43;;
20557;SDS011;10437;48.156;11.530;2022-10-17T06:17:44;7.82;;;3.33;;
20557;SDS011;10437;48.156;11.530;2022-10-17T06:20:11;15.52;;;2.92;;
20557;SDS011;10437;48.156;11.530;2022-10-17T06:22:38;6.07;;;2.90;;
20557;SDS011;10437;48.156;11.530;2022-10-17T06:25:06;16.05;;;3.30;;
20557;SDS011;10437;48.156;11.530;2022-10-17T06:27:33;8.48;;;3.15;;
20557;SDS011;10437;48.156;11.530;2022-10-17T06:30:02;12.38;;;2.88;;
20557;SDS011;10437;48.156;11.530;2022-10-17T06:32:30;10.18;;;3.67;;
20557;SDS011;10437;48.156;11.530;2022-10-17T06:34:56;8.73;;;3.25;;
20557;SDS011;10437;48.156;11.530;2022-10-17T06:37:23;12.27;;;3.33;;
20557;SDS011;10437;48.156;11.530;2022-10-17T06:39:51;7.57;;;3.22;;
20557;SDS011;10437;48.156;11.530;2022-10-17T06:42:18;11.82;;;3.75;;
20557;SDS011;10437;48.156;11.530;2022-10-17T06:44:45;5.57;;;3.00;;
20557;SDS011;10437;48.156;11.530;2022-10-17T06:47:13;9.68;;;3.38;;
20557;SDS011;10437;48.156;11.530;2022-10-17T06:49:40;5.63;;;2.92;;
20557;SDS011;10437;48.156;11.530;2022-10-17T06:52:08;8.63;;;3.65;;
20557;SDS011;10437;48.156;11.530;2022-10-17T06:54:35;7.05;;;3.28;;
20557;SDS011;10437;48.156;11.530;2022-10-17T06:57:02;8.20;;;3.25;;
20557;SDS011;10437;48.156;11.530;2022-10-17T06:59:29;8.30;;;3.30;;
20557;SDS011;10437;48.156;11.530;2022-10-17T07:01:56;13.27;;;3.97;;
20557;SDS011;10437;48.156;11.530;2022-10-17T07:04:25;11.13;;;3.42;;
20557;SDS011;10437;48.156;11.530;2022-10-17T07:06:52;10.73;;;3.72;;
20557;SDS011;10437;48.156;11.530;2022-10-17T07:09:19;7.30;;;3.45;;
20557;SDS011;10437;48.156;11.530;2022-10-17T07:11:46;14.10;;;3.63;;
20557;SDS011;10437;48.156;11.530;2022-10-17T07:14:14;6.85;;;3.47;;
20557;SDS011;10437;48.156;11.530;2022-10-17T07:16:41;11.23;;;3.78;;
20557;SDS011;10437;48.156;11.530;2022-10-17T07:19:07;16.73;;;3.90;;
20557;SDS011;10437;48.156;11.530;2022-10-17T07:21:36;9.70;;;3.63;;
20557;SDS011;10437;48.156;11.530;2022-10-17T07:24:03;13.65;;;3.85;;
20557;SDS011;10437;48.156;11.530;2022-10-17T07:26:31;11.85;;;3.92;;
20557;SDS011;10437;48.156;11.530;2022-10-17T07:28:58;7.38;;;3.17;;
20557;SDS011;10437;48.156;11.530;2022-10-17T07:31:25;6.07;;;2.70;;
20557;SDS011;10437;48.156;11.530;2022-10-17T07:33:52;11.02;;;3.35;;
20557;SDS011;10437;48.156;11.530;2022-10-17T07:36:20;9.98;;;3.15;;
20557;SDS011;10437;48.156;11.530;2022-10-17T07:38:48;6.85;;;2.95;;
20557;SDS011;10437;48.156;11.530;2022-10-17T07:41:15;5.13;;;2.55;;
20557;SDS011;10437;48.156;11.530;2022-10-17T07:43:43;9.57;;;3.10;;
20557;SDS011;10437;48.156;11.530;2022-10-17T07:46:10;4.93;;;2.50;;
20557;SDS011;10437;48.156;11.530;2022-10-17T07:48:37;7.50;;;2.63;;
20557;SDS011;10437;48.156;11.530;2022-10-17T07:51:05;7.28;;;2.58;;
20557;SDS011;10437;48.156;11.530;2022-10-17T07:53:34;6.85;;;2.78;;
20557;SDS011;10437;48.156;11.530;2022-10-17T07:56:06;6.10;;;3.20;;
20557;SDS011;10437;48.156;11.530;2022-10-17T07:58:34;6.13;;;2.88;;
20557;SDS011;10437;48.156;11.530;2022-10-17T08:01:02;9.50;;;2.60;;
20557;SDS011;10437;48.156;11.530;2022-10-17T08:03:30;5.43;;;2.60;;
20557;SDS011;10437;48.156;11.530;2022-10-17T08:05:58;6.13;;;2.97;;
20557;SDS011;10437;48.156;11.530;2022-10-17T08:08:26;6.85;;;2.60;;
20557;SDS011;10437;48.156;11.530;2022-10-17T08:10:53;8.40;;;3.10;;
20557;SDS011;10437;48.156;11.530;2022-10-17T08:13:21;7.32;;;2.92;;
20557;SDS011;10437;48.156;11.530;2022-10-17T08:15:48;6.95;;;2.70;;
20557;SDS011;10437;48.156;11.530;2022-10-17T08:18:15;7.75;;;2.90;;
20557;SDS011;10437;48.156;11.530;2022-10-17T08:20:42;7.20;;;2.60;;
20557;SDS011;10437;48.156;11.530;2022-10-17T08:23:10;5.47;;;2.47;;
20557;SDS011;10437;48.156;11.530;2022-10-17T08:25:37;5.93;;;2.75;;
20557;SDS011;10437;48.156;11.530;2022-10-17T08:28:05;5.10;;;2.72;;
20557;SDS011;10437;48.156;11.530;2022-10-17T08:30:33;5.15;;;2.38;;
20557;SDS011;10437;48.156;11.530;2022-10-17T08:33:00;8.73;;;2.55;;
20557;SDS011;10437;48.156;11.530;2022-10-17T08:35:27;4.82;;;2.20;;
20557;SDS011;10437;48.156;11.530;2022-10-17T08:37:54;8.00;;;2.60;;
20557;SDS011;10437;48.156;11.530;2022-10-17T08:40:23;3.92;;;2.10;;
20557;SDS011;10437;48.156;11.530;2022-10-17T08:43:00;9.35;;;2.40;;
20557;SDS011;10437;48.156;11.530;2022-10-17T08:45:41;3.55;;;2.17;;
20557;SDS011;10437;48.156;11.530;2022-10-17T08:48:13;5.40;;;2.35;;
20557;SDS011;10437;48.156;11.530;2022-10-17T08:50:44;7.93;;;2.33;;
20557;SDS011;10437;48.156;11.530;2022-10-17T08:53:15;4.30;;;2.17;;
20557;SDS011;10437;48.156;11.530;2022-10-17T08:55:45;5.00;;;2.10;;
20557;SDS011;10437;48.156;11.530;2022-10-17T08:58:14;4.47;;;2.47;;
20557;SDS011;10437;48.156;11.530;2022-10-17T09:00:47;7.35;;;2.47;;
20557;SDS011;10437;48.156;11.530;2022-10-17T09:03:27;8.48;;;2.55;;
20557;SDS011;10437;48.156;11.530;2022-10-17T09:06:11;3.22;;;1.92;;
20557;SDS011;10437;48.156;11.530;2022-10-17T09:08:46;6.28;;;2.50;;
20557;SDS011;10437;48.156;11.530;2022-10-17T09:11:22;6.82;;;2.33;;
20557;SDS011;10437;48.156;11.530;2022-10-17T09:14:09;29.83;;;7.72;;
20557;SDS011;10437;48.156;11.530;2022-10-17T09:16:56;30.02;;;6.85;;
20557;SDS011;10437;48.156;11.530;2022-10-17T09:19:32;11.50;;;3.03;;
20557;SDS011;10437;48.156;11.530;2022-10-17T09:22:03;22.80;;;5.50;;
20557;SDS011;10437;48.156;11.530;2022-10-17T09:24:37;16.65;;;3.90;;
20557;SDS011;10437;48.156;11.530;2022-10-17T09:27:09;12.73;;;2.90;;
20557;SDS011;10437;48.156;11.530;2022-10-17T09:29:51;11.45;;;2.78;;
20557;SDS011;10437;48.156;11.530;2022-10-17T09:32:23;9.40;;;2.33;;
20557;SDS011;10437;48.156;11.530;2022-10-17T09:34:50;12.57;;;2.70;;
20557;SDS011;10437;48.156;11.530;2022-10-17T09:37:18;8.48;;;2.10;;
20557;SDS011;10437;48.156;11.530;2022-10-17T09:39:48;8.43;;;2.50;;
20557;SDS011;10437;48.156;11.530;2022-10-17T09:42:16;8.80;;;2.55;;
20557;SDS011;10437;48.156;11.530;2022-10-17T09:44:49;6.60;;;2.50;;
20557;SDS011;10437;48.156;11.530;2022-10-17T09:47:23;43.53;;;4.32;;
20557;SDS011;10437;48.156;11.530;2022-10-17T09:49:54;22.58;;;2.58;;
20557;SDS011;10437;48.156;11.530;2022-10-17T09:52:24;7.43;;;1.85;;
20557;SDS011;10437;48.156;11.530;2022-10-17T09:54:57;12.40;;;2.60;;
20557;SDS011;10437;48.156;11.530;2022-10-17T09:57:27;15.05;;;3.58;;
20557;SDS011;10437;48.156;11.530;2022-10-17T09:59:55;6.47;;;2.08;;
20557;SDS011;10437;48.156;11.530;2022-10-17T10:02:26;16.45;;;2.33;;
20557;SDS011;10437;48.156;11.530;2022-10-17T10:04:55;5.80;;;2.30;;
20557;SDS011;10437;48.156;11.530;2022-10-17T10:07:24;5.22;;;2.00;;
20557;SDS011;10437;48.156;11.530;2022-10-17T10:09:52;3.25;;;1.85;;
20557;SDS011;10437;48.156;11.530;2022-10-17T10:12:20;5.68;;;1.77;;
20557;SDS011;10437;48.156;11.530;2022-10-17T10:14:48;5.18;;;1.80;;
20557;SDS011;10437;48.156;11.530;2022-10-17T10:17:33;5.22;;;1.80;;
20557;SDS011;10437;48.156;11.530;2022-10-17T10:20:03;4.20;;;1.85;;
20557;SDS011;10437;48.156;11.530;2022-10-17T10:22:45;2.67;;;1.77;;
20557;SDS011;10437;48.156;11.530;2022-10-17T10:28:20;5.10;;;2.03;;
20557;SDS011;10437;48.156;11.530;2022-10-17T10:30:51;2.97;;;1.83;;
20557;SDS011;10437;48.156;11.530;2022-10-17T10:33:21;2.92;;;1.80;;
20557;SDS011;10437;48.156;11.530;2022-10-17T10:35:51;4.38;;;2.13;;
20557;SDS011;10437;48.156;11.530;2022-10-17T10:38:21;5.95;;;1.75;;
20557;SDS011;10437;48.156;11.530;2022-10-17T10:40:48;4.28;;;1.65;;
20557;SDS011;10437;48.156;11.530;2022-10-17T10:43:21;5.35;;;1.67;;
20557;SDS011;10437;48.156;11.530;2022-10-17T10:45:53;3.75;;;2.28;;
20557;SDS011;10437;48.156;11.530;2022-10-17T10:48:22;2.80;;;2.03;;
20557;SDS011;10437;48.156;11.530;2022-10-17T10:50:51;3.65;;;1.67;;
20557;SDS011;10437;48.156;11.530;2022-10-17T10:53:24;5.78;;;1.83;;
20557;SDS011;10437;48.156;11.530;2022-10-17T10:55:59;4.72;;;1.60;;
20557;SDS011;10437;48.156;11.530;2022-10-17T10:58:31;5.70;;;2.08;;
20557;SDS011;10437;48.156;11.530;2022-10-17T11:01:10;6.20;;;1.77;;
20557;SDS011;10437;48.156;11.530;2022-10-17T11:03:51;2.83;;;1.52;;
20557;SDS011;10437;48.156;11.530;2022-10-17T11:06:23;1.85;;;1.50;;
20557;SDS011;10437;48.156;11.530;2022-10-17T11:08:56;7.10;;;2.03;;
20557;SDS011;10437;48.156;11.530;2022-10-17T11:11:34;3.28;;;1.60;;
20557;SDS011;10437;48.156;11.530;2022-10-17T11:14:07;5.55;;;2.30;;
20557;SDS011;10437;48.156;11.530;2022-10-17T11:16:44;2.30;;;1.60;;
20557;SDS011;10437;48.156;11.530;2022-10-17T11:19:17;3.92;;;1.77;;
20557;SDS011;10437;48.156;11.530;2022-10-17T11:21:53;3.05;;;1.88;;
20557;SDS011;10437;48.156;11.530;2022-10-17T11:24:29;3.38;;;1.88;;
20557;SDS011;10437;48.156;11.530;2022-10-17T11:27:03;2.33;;;1.50;;
20557;SDS011;10437;48.156;11.530;2022-10-17T11:29:31;2.03;;;1.63;;
20557;SDS011;10437;48.156;11.530;2022-10-17T11:32:02;2.83;;;1.90;;
20557;SDS011;10437;48.156;11.530;2022-10-17T11:34:36;3.30;;;1.85;;
20557;SDS011;10437;48.156;11.530;2022-10-17T11:37:10;1.42;;;1.33;;
20557;SDS011;10437;48.156;11.530;2022-10-17T11:39:41;1.60;;;1.42;;
20557;SDS011;10437;48.156;11.530;2022-10-17T11:42:13;2.70;;;1.60;;
20557;SDS011;10437;48.156;11.530;2022-10-17T11:44:44;3.58;;;1.73;;
20557;SDS011;10437;48.156;11.530;2022-10-17T11:47:21;3.20;;;1.60;;
20557;SDS011;10437;48.156;11.530;2022-10-17T11:49:58;3.92;;;1.77;;
20557;SDS011;10437;48.156;11.530;2022-10-17T11:52:32;2.33;;;1.60;;
20557;SDS011;10437;48.156;11.530;2022-10-17T11:55:07;3.55;;;1.70;;
20557;SDS011;10437;48.156;11.530;2022-10-17T11:57:43;3.90;;;1.60;;
20557;SDS011;10437;48.156;11.530;2022-10-17T12:00:39;6.00;;;2.70;;
20557;SDS011;10437;48.156;11.530;2022-10-17T12:03:20;3.58;;;1.50;;
20557;SDS011;10437;48.156;11.530;2022-10-17T12:05:58;5.70;;;1.85;;
20557;SDS011;10437;48.156;11.530;2022-10-17T12:08:31;4.95;;;1.77;;
20557;SDS011;10437;48.156;11.530;2022-10-17T12:11:04;6.60;;;4.35;;
20557;SDS011;10437;48.156;11.530;2022-10-17T12:13:48;2.85;;;1.80;;
20557;SDS011;10437;48.156;11.530;2022-10-17T12:19:20;2.92;;;2.35;;
20557;SDS011;10437;48.156;11.530;2022-10-17T12:22:01;12.27;;;6.68;;
20557;SDS011;10437;48.156;11.530;2022-10-17T12:24:34;18.27;;;11.05;;
20557;SDS011;10437;48.156;11.530;2022-10-17T12:30:04;12.77;;;7.50;;
20557;SDS011;10437;48.156;11.530;2022-10-17T12:32:51;5.25;;;3.63;;
20557;SDS011;10437;48.156;11.530;2022-10-17T12:35:21;8.38;;;5.00;;
20557;SDS011;10437;48.156;11.530;2022-10-17T12:38:01;9.50;;;4.10;;
20557;SDS011;10437;48.156;11.530;2022-10-17T12:43:34;4.15;;;3.10;;
20557;SDS011;10437;48.156;11.530;2022-10-17T12:52:17;4.28;;;1.50;;
20557;SDS011;10437;48.156;11.530;2022-10-17T12:54:52;3.03;;;1.80;;
20557;SDS011;10437;48.156;11.530;2022-10-17T12:57:23;2.60;;;1.50;;
20557;SDS011;10437;48.156;11.530;2022-10-17T12:59:55;2.53;;;1.30;;
20557;SDS011;10437;48.156;11.530;2022-10-17T13:02:23;4.75;;;1.50;;
20557;SDS011;10437;48.156;11.530;2022-10-17T13:04:55;3.45;;;1.70;;
20557;SDS011;10437;48.156;11.530;2022-10-17T13:07:30;7.07;;;1.70;;
20557;SDS011;10437;48.156;11.530;2022-10-17T13:10:00;4.30;;;1.60;;
20557;SDS011;10437;48.156;11.530;2022-10-17T13:12:30;5.78;;;1.42;;
20557;SDS011;10437;48.156;11.530;2022-10-17T13:15:00;4.05;;;1.55;;
20557;SDS011;10437;48.156;11.530;2022-10-17T13:17:31;4.97;;;1.60;;
20557;SDS011;10437;48.156;11.530;2022-10-17T13:19:58;14.07;;;2.00;;
20557;SDS011;10437;48.156;11.530;2022-10-17T13:22:27;7.07;;;1.90;;
20557;SDS011;10437;48.156;11.530;2022-10-17T13:25:07;2.85;;;1.40;;
20557;SDS011;10437;48.156;11.530;2022-10-17T13:27:39;3.83;;;1.30;;
20557;SDS011;10437;48.156;11.530;2022-10-17T13:30:23;8.70;;;1.98;;
20557;SDS011;10437;48.156;11.530;2022-10-17T13:32:52;3.80;;;1.40;;
20557;SDS011;10437;48.156;11.530;2022-10-17T13:35:23;3.17;;;1.58;;
20557;SDS011;10437;48.156;11.530;2022-10-17T13:37:53;4.25;;;1.40;;
20557;SDS011;10437;48.156;11.530;2022-10-17T13:40:23;2.45;;;1.60;;
20557;SDS011;10437;48.156;11.530;2022-10-17T13:42:51;4.32;;;1.83;;
20557;SDS011;10437;48.156;11.530;2022-10-17T13:45:23;4.68;;;1.50;;
20557;SDS011;10437;48.156;11.530;2022-10-17T13:47:53;5.53;;;1.90;;
20557;SDS011;10437;48.156;11.530;2022-10-17T13:50:23;2.03;;;1.33;;
20557;SDS011;10437;48.156;11.530;2022-10-17T13:55:52;4.22;;;1.95;;
20557;SDS011;10437;48.156;11.530;2022-10-17T13:58:21;4.82;;;1.50;;
20557;SDS011;10437;48.156;11.530;2022-10-17T14:00:48;2.38;;;1.52;;
20557;SDS011;10437;48.156;11.530;2022-10-17T14:03:17;3.03;;;1.40;;
20557;SDS011;10437;48.156;11.530;2022-10-17T14:08:47;7.15;;;1.50;;
20557;SDS011;10437;48.156;11.530;2022-10-17T14:11:28;1.90;;;1.30;;
20557;SDS011;10437;48.156;11.530;2022-10-17T14:13:58;5.72;;;1.70;;
20557;SDS011;10437;48.156;11.530;2022-10-17T14:16:31;2.67;;;1.40;;
20557;SDS011;10437;48.156;11.530;2022-10-17T14:19:00;2.10;;;1.40;;
20557;SDS011;10437;48.156;11.530;2022-10-17T14:21:27;1.52;;;1.20;;
20557;SDS011;10437;48.156;11.530;2022-10-17T14:26:48;2.33;;;1.52;;
20557;SDS011;10437;48.156;11.530;2022-10-17T14:29:19;4.28;;;1.58;;
20557;SDS011;10437;48.156;11.530;2022-10-17T14:31:48;3.10;;;1.40;;
20557;SDS011;10437;48.156;11.530;2022-10-17T14:34:19;4.90;;;1.52;;
20557;SDS011;10437;48.156;11.530;2022-10-17T14:36:49;4.15;;;1.77;;
20557;SDS011;10437;48.156;11.530;2022-10-17T14:39:18;4.28;;;1.40;;
20557;SDS011;10437;48.156;11.530;2022-10-17T14:41:47;3.30;;;1.42;;
20557;SDS011;10437;48.156;11.530;2022-10-17T14:44:18;2.70;;;1.35;;
20557;SDS011;10437;48.156;11.530;2022-10-17T14:46:49;2.95;;;1.40;;
20557;SDS011;10437;48.156;11.530;2022-10-17T14:49:20;2.53;;;1.40;;
20557;SDS011;10437;48.156;11.530;2022-10-17T14:54:48;2.92;;;1.70;;
20557;SDS011;10437;48.156;11.530;2022-10-17T14:57:17;4.25;;;1.60;;
20557;SDS011;10437;48.156;11.530;2022-10-17T14:59:47;5.53;;;1.92;;
20557;SDS011;10437;48.156;11.530;2022-10-17T15:02:14;2.88;;;1.60;;
20557;SDS011;10437;48.156;11.530;2022-10-17T15:04:41;3.42;;;1.48;;
20557;SDS011;10437;48.156;11.530;2022-10-17T15:07:09;3.30;;;1.60;;
20557;SDS011;10437;48.156;11.530;2022-10-17T15:09:38;1.92;;;1.33;;
20557;SDS011;10437;48.156;11.530;2022-10-17T15:12:06;2.45;;;1.65;;
20557;SDS011;10437;48.156;11.530;2022-10-17T15:14:39;3.10;;;1.75;;
20557;SDS011;10437;48.156;11.530;2022-10-17T15:17:08;4.82;;;1.52;;
20557;SDS011;10437;48.156;11.530;2022-10-17T15:19:38;3.40;;;1.70;;
20557;SDS011;10437;48.156;11.530;2022-10-17T15:22:05;4.93;;;1.73;;
20557;SDS011;10437;48.156;11.530;2022-10-17T15:24:32;3.35;;;1.52;;